Alvin, Wisconsin
Current Conditions -  °F | °C
As of 5:15 PM on Tuesday 25 Nov 2014 (Local Time) from KEGV Reporting Station
Clear Clear  
Wind Chill: 13°   Ceiling: Unl
Heat Index: 13°   Visibility: 10mi
Dew Point:   Wind: 0mph
Humidity: 86%   Direction: NA
Pressure: 29.99"   Gusts: NA
Location:  45.9186°N, 88.7601°W
Report Text: KEGV 252315Z AUTO 00000KT 10SM CLR M11/M13 A2999 RMK AO2 T11071127
Loading
Personal Weather Stations






























Interactive Weather Map New forecast layout! Learn more

10-Day Weather Forecast

Advertisements
Track Severe Weather on mobile